createdAt,value
2023-01-02T00:00:56.774Z,2.80
2023-01-02T00:06:50.232Z,2.97
2023-01-02T00:12:43.176Z,2.70
2023-01-02T00:18:37.953Z,2.97
2023-01-02T00:24:30.951Z,2.70
2023-01-02T00:30:24.474Z,2.57
2023-01-02T00:36:19.443Z,3.33
2023-01-02T00:42:12.771Z,3.20
2023-01-02T00:48:06.269Z,3.73
2023-01-02T00:54:01.066Z,3.33
2023-01-02T00:59:54.622Z,3.23
2023-01-02T01:05:47.992Z,3.80
2023-01-02T01:11:42.742Z,3.63
2023-01-02T01:17:36.166Z,3.80
2023-01-02T01:23:30.287Z,3.33
2023-01-02T01:29:26.195Z,3.63
2023-01-02T01:35:19.602Z,4.10
2023-01-02T01:41:14.679Z,3.83
2023-01-02T01:47:20.207Z,4.30
2023-01-02T01:53:17.803Z,4.40
2023-01-02T01:59:12.391Z,4.70
2023-01-02T02:05:08.777Z,4.80
2023-01-02T02:11:03.574Z,3.73
2023-01-02T02:17:07.139Z,4.57
2023-01-02T02:23:41.890Z,4.93
2023-01-02T02:30:13.355Z,4.80
2023-01-02T02:36:15.996Z,4.93
2023-01-02T02:42:19.355Z,4.50
2023-01-02T02:48:22.026Z,5.20
2023-01-02T02:54:20.711Z,4.80
2023-01-02T03:00:17.505Z,4.50
2023-01-02T03:06:24.907Z,5.30
2023-01-02T03:12:26.907Z,4.83
2023-01-02T03:18:27.594Z,4.90
2023-01-02T03:24:24.431Z,4.63
2023-01-02T03:30:21.833Z,4.27
2023-01-02T03:36:23.794Z,4.40
2023-01-02T03:42:24.638Z,4.30
2023-01-02T03:48:25.266Z,4.00
2023-01-02T03:54:20.247Z,4.63
2023-01-02T04:00:18.760Z,4.40
2023-01-02T04:06:15.523Z,3.70
2023-01-02T04:12:12.796Z,3.77
2023-01-02T04:18:11.932Z,3.30
2023-01-02T04:24:12.155Z,4.07
2023-01-02T04:30:06.075Z,4.03
2023-01-02T04:36:08.997Z,4.07
2023-01-02T04:42:02.634Z,3.40
2023-01-02T04:47:56.088Z,3.80
2023-01-02T04:53:51.419Z,3.40
2023-01-02T04:59:44.822Z,4.53
2023-01-02T05:05:37.787Z,3.50
2023-01-02T05:11:32.406Z,4.70
2023-01-02T05:17:25.923Z,4.53
2023-01-02T05:23:36.584Z,4.13
2023-01-02T05:29:30.969Z,3.87
2023-01-02T05:35:30.167Z,3.97
2023-01-02T05:41:25.888Z,4.20
2023-01-02T05:47:20.720Z,4.40
2023-01-02T05:53:14.609Z,4.10
2023-01-02T05:59:08.989Z,4.40
2023-01-02T06:05:03.321Z,4.40
2023-01-02T06:10:56.795Z,4.13
2023-01-02T06:16:49.866Z,4.27
2023-01-02T06:22:44.317Z,4.90
2023-01-02T06:28:37.524Z,3.80
2023-01-02T06:34:30.534Z,3.93
2023-01-02T06:40:24.993Z,4.30
2023-01-02T06:46:19.326Z,4.50
2023-01-02T06:52:12.785Z,4.30
2023-01-02T06:58:12.231Z,4.80
2023-01-02T07:04:07.143Z,4.37
2023-01-02T07:10:00.667Z,4.83
2023-01-02T07:15:55.413Z,4.10
2023-01-02T07:21:48.840Z,4.27
2023-01-02T07:27:41.879Z,4.40
2023-01-02T07:33:36.915Z,4.70
2023-01-02T07:39:29.921Z,4.10
2023-01-02T07:45:23.372Z,4.80
2023-01-02T07:51:26.314Z,4.73
2023-01-02T07:57:21.571Z,4.60
2023-01-02T08:03:18.197Z,4.33
2023-01-02T08:09:13.117Z,4.87
2023-01-02T08:15:07.599Z,3.90
2023-01-02T08:21:01.612Z,3.80
2023-01-02T08:26:56.033Z,4.67
2023-01-02T08:32:49.074Z,4.33
2023-01-02T08:38:42.892Z,4.27
2023-01-02T08:44:38.063Z,3.83
2023-01-02T08:50:31.412Z,3.70
2023-01-02T08:56:26.892Z,3.53
2023-01-02T09:02:21.861Z,3.30
2023-01-02T09:08:15.516Z,3.63
2023-01-02T09:14:08.943Z,3.60
2023-01-02T09:20:03.869Z,3.80
2023-01-02T09:26:00.936Z,3.70
2023-01-02T09:31:54.492Z,3.30
2023-01-02T09:37:48.919Z,3.93
2023-01-02T09:43:47.387Z,3.17
2023-01-02T09:49:47.910Z,3.17
2023-01-02T09:55:46.548Z,2.87
2023-01-02T10:01:52.518Z,3.53
2023-01-02T10:07:52.944Z,3.47
2023-01-02T10:20:23.979Z,3.27
2023-01-02T10:26:19.431Z,3.27
2023-01-02T10:32:17.630Z,3.33
2023-01-02T10:38:13.224Z,3.10
2023-01-02T10:44:09.413Z,3.67
2023-01-02T10:50:07.040Z,3.50
2023-01-02T10:56:03.773Z,3.33
2023-01-02T11:01:58.664Z,3.00
2023-01-02T11:07:55.417Z,2.60
2023-01-02T11:13:54.491Z,2.70
2023-01-02T11:19:50.348Z,2.50
2023-01-02T11:25:45.704Z,2.37
2023-01-02T11:31:44.792Z,2.80
2023-01-02T11:37:38.277Z,2.20
2023-01-02T11:43:52.324Z,2.27
2023-01-02T11:49:49.491Z,2.13
2023-01-02T11:55:47.618Z,1.13
2023-01-02T12:01:51.548Z,1.33
2023-01-02T12:07:47.532Z,0.70
2023-01-02T12:13:59.980Z,0.87
2023-01-02T12:20:11.667Z,0.80
2023-01-02T12:26:12.139Z,0.60
2023-01-02T12:32:23.281Z,0.60
2023-01-02T12:38:27.536Z,1.00
2023-01-02T12:44:42.498Z,0.80
2023-01-02T12:50:51.406Z,0.83
2023-01-02T12:56:57.276Z,0.80
2023-01-02T13:03:21.806Z,0.90
2023-01-02T13:09:24.097Z,1.17
2023-01-02T13:15:23.780Z,1.37
2023-01-02T13:21:25.150Z,0.90
2023-01-02T13:27:19.029Z,1.40
2023-01-02T13:33:33.166Z,1.00
2023-01-02T13:39:30.576Z,1.27
2023-01-02T13:45:29.225Z,1.00
2023-01-02T13:51:25.912Z,1.13
2023-01-02T13:57:32.894Z,0.87
2023-01-02T14:03:37.590Z,0.90
2023-01-02T14:10:02.969Z,0.70
2023-01-02T14:16:37.998Z,1.33
2023-01-02T14:22:33.469Z,0.90
2023-01-02T14:28:30.058Z,1.03
2023-01-02T14:34:26.159Z,1.33
2023-01-02T14:40:35.647Z,0.97
2023-01-02T14:46:32.996Z,1.20
2023-01-02T14:52:30.659Z,0.77
2023-01-02T14:58:32.198Z,0.90
2023-01-02T15:04:39.116Z,1.20
2023-01-02T15:10:32.686Z,1.23
2023-01-02T15:16:26.328Z,1.13
2023-01-02T15:22:28.035Z,1.53
2023-01-02T15:28:27.200Z,1.40
2023-01-02T15:34:26.190Z,1.33
2023-01-02T15:40:26.108Z,1.47
2023-01-02T15:46:19.918Z,1.60
2023-01-02T15:52:21.753Z,1.57
2023-01-02T15:58:29.060Z,1.10
2023-01-02T16:04:27.872Z,1.10
2023-01-02T16:10:23.840Z,1.23
2023-01-02T16:16:19.881Z,2.50
2023-01-02T16:22:20.988Z,1.20
2023-01-02T16:28:36.092Z,1.37
2023-01-02T16:34:36.064Z,1.37
2023-01-02T16:41:01.177Z,1.90
2023-01-02T16:46:56.714Z,1.60
2023-01-02T16:52:52.703Z,1.80
2023-01-02T16:58:45.811Z,1.40
2023-01-02T17:04:39.355Z,1.37
2023-01-02T17:10:34.925Z,1.30
2023-01-02T17:16:28.396Z,1.30
2023-01-02T17:22:21.607Z,1.50
2023-01-02T17:28:16.568Z,1.10
2023-01-02T17:34:09.656Z,1.57
2023-01-02T17:40:03.098Z,1.70
2023-01-02T17:45:58.261Z,1.87
2023-01-02T17:51:51.789Z,1.80
2023-01-02T17:57:45.555Z,1.37
2023-01-02T18:03:40.339Z,1.70
2023-01-02T18:09:33.319Z,1.40
2023-01-02T18:15:26.566Z,1.80
2023-01-02T18:21:23.391Z,2.57
2023-01-02T18:27:23.289Z,2.53
2023-01-02T18:33:18.918Z,2.83
2023-01-02T18:39:20.039Z,2.97
2023-01-02T18:45:17.359Z,3.70
2023-01-02T18:51:18.347Z,4.37
2023-01-02T18:57:16.155Z,3.80
2023-01-02T19:03:20.398Z,3.00
2023-01-02T19:09:17.113Z,3.00
2023-01-02T19:15:43.187Z,3.70
2023-01-02T19:21:38.370Z,3.87
2023-01-02T19:27:40.069Z,3.30
2023-01-02T19:33:41.602Z,3.50
2023-01-02T19:39:37.957Z,3.43
2023-01-02T19:45:35.570Z,3.03
2023-01-02T19:51:32.517Z,2.43
2023-01-02T19:57:26.835Z,2.60
2023-01-02T20:03:20.239Z,3.17
2023-01-02T20:09:16.712Z,3.40
2023-01-02T20:15:15.271Z,3.43
2023-01-02T20:21:08.250Z,3.33
2023-01-02T20:27:03.623Z,3.40
2023-01-02T20:32:57.226Z,4.03
2023-01-02T20:38:51.697Z,3.50
2023-01-02T20:44:46.975Z,4.67
2023-01-02T20:50:39.993Z,4.10
2023-01-02T20:56:33.775Z,4.90
2023-01-02T21:02:30.468Z,4.20
2023-01-02T21:08:24.250Z,4.97
2023-01-02T21:14:17.641Z,4.40
2023-01-02T21:20:12.736Z,3.50
2023-01-02T21:26:07.171Z,3.40
2023-01-02T21:32:00.582Z,3.67
2023-01-02T21:37:55.326Z,3.93
2023-01-02T21:43:50.165Z,3.50
2023-01-02T21:49:44.175Z,3.63
2023-01-02T21:55:39.114Z,4.20
2023-01-02T22:01:32.593Z,4.00
2023-01-02T22:07:35.883Z,3.50
2023-01-02T22:13:33.336Z,3.67
2023-01-02T22:19:27.669Z,3.53
2023-01-02T22:25:21.126Z,3.17
2023-01-02T22:31:16.205Z,3.60
2023-01-02T22:37:09.800Z,3.50
2023-01-02T22:43:04.847Z,3.37
2023-01-02T22:49:00.806Z,3.60
2023-01-02T22:54:54.261Z,3.37
2023-01-02T23:00:49.226Z,3.20
2023-01-02T23:07:13.716Z,2.60
2023-01-02T23:12:58.078Z,2.87
2023-01-02T23:19:09.241Z,2.93
2023-01-02T23:25:05.161Z,2.93
2023-01-02T23:30:58.596Z,2.40
2023-01-02T23:36:52.717Z,2.60
2023-01-02T23:42:47.529Z,2.57
2023-01-02T23:48:40.999Z,2.70
2023-01-02T23:54:34.410Z,2.60
